createdAt,value
2019-04-25T00:01:11.542Z,1.30
2019-04-25T00:03:42.571Z,1.10
2019-04-25T00:06:12.210Z,1.25
2019-04-25T00:08:42.501Z,1.10
2019-04-25T00:11:11.824Z,1.32
2019-04-25T00:13:41.931Z,1.40
2019-04-25T00:16:11.609Z,1.32
2019-04-25T00:18:41.854Z,1.30
2019-04-25T00:21:12.219Z,1.30
2019-04-25T00:23:42.975Z,1.25
2019-04-25T00:26:23.059Z,1.22
2019-04-25T00:28:52.424Z,1.30
2019-04-25T00:31:22.091Z,1.30
2019-04-25T00:33:52.505Z,1.85
2019-04-25T00:36:21.771Z,1.30
2019-04-25T00:38:52.335Z,1.22
2019-04-25T00:41:21.359Z,1.10
2019-04-25T00:43:51.729Z,1.40
2019-04-25T00:46:20.419Z,1.50
2019-04-25T00:48:51.763Z,1.30
2019-04-25T00:51:21.776Z,1.40
2019-04-25T00:53:52.262Z,1.50
2019-04-25T00:56:22.304Z,1.30
2019-04-25T00:58:58.829Z,1.50
2019-04-25T01:01:41.373Z,1.20
2019-04-25T01:04:12.274Z,1.40
2019-04-25T01:06:41.650Z,1.30
2019-04-25T01:09:12.492Z,1.40
2019-04-25T01:11:42.365Z,1.57
2019-04-25T01:14:11.962Z,1.30
2019-04-25T01:16:41.750Z,1.35
2019-04-25T01:19:10.544Z,1.30
2019-04-25T01:21:39.013Z,1.30
2019-04-25T01:24:07.780Z,1.40
2019-04-25T01:26:36.381Z,1.40
2019-04-25T01:29:05.940Z,1.27
2019-04-25T01:31:35.007Z,1.60
2019-04-25T01:34:05.217Z,1.45
2019-04-25T01:36:55.023Z,1.50
2019-04-25T01:39:31.941Z,1.30
2019-04-25T01:42:10.987Z,1.40
2019-04-25T01:44:41.108Z,1.22
2019-04-25T01:47:09.701Z,1.12
2019-04-25T01:49:38.330Z,1.55
2019-04-25T01:52:07.192Z,1.37
2019-04-25T01:54:35.745Z,1.60
2019-04-25T01:57:04.466Z,1.35
2019-04-25T01:59:33.799Z,1.55
2019-04-25T02:02:03.817Z,1.40
2019-04-25T02:04:34.141Z,1.55
2019-04-25T02:07:03.645Z,1.72
2019-04-25T02:09:33.702Z,1.70
2019-04-25T02:12:04.886Z,1.50
2019-04-25T02:14:33.690Z,1.60
2019-04-25T02:17:04.438Z,2.05
2019-04-25T02:19:34.293Z,1.90
2019-04-25T02:22:04.011Z,1.67
2019-04-25T02:24:33.894Z,1.40
2019-04-25T02:27:04.574Z,1.92
2019-04-25T02:29:33.264Z,2.50
2019-04-25T02:32:06.059Z,1.75
2019-04-25T02:34:34.537Z,1.70
2019-04-25T02:37:07.099Z,1.70
2019-04-25T02:39:34.805Z,2.00
2019-04-25T02:42:07.794Z,1.40
2019-04-25T02:44:35.620Z,1.60
2019-04-25T02:47:08.171Z,1.67
2019-04-25T02:49:40.569Z,1.50
2019-04-25T02:52:17.676Z,1.77
2019-04-25T02:54:44.917Z,1.80
2019-04-25T02:57:14.634Z,1.60
2019-04-25T02:59:45.124Z,2.50
2019-04-25T03:02:15.374Z,1.57
2019-04-25T03:04:44.608Z,1.82
2019-04-25T03:07:16.983Z,1.60
2019-04-25T03:09:45.042Z,2.07
2019-04-25T03:12:26.861Z,1.60
2019-04-25T03:14:44.765Z,1.60
2019-04-25T03:17:14.244Z,1.67
2019-04-25T03:19:54.334Z,1.70
2019-04-25T03:22:27.671Z,1.90
2019-04-25T03:24:56.279Z,2.13
2019-04-25T03:27:25.312Z,1.57
2019-04-25T03:29:54.221Z,1.97
2019-04-25T03:32:27.917Z,1.90
2019-04-25T03:34:54.811Z,1.80
2019-04-25T03:37:23.566Z,1.85
2019-04-25T03:39:53.453Z,1.90
2019-04-25T03:42:23.695Z,1.95
2019-04-25T03:44:53.845Z,2.23
2019-04-25T03:47:23.572Z,1.60
2019-04-25T03:49:53.503Z,1.65
2019-04-25T03:52:23.770Z,2.17
2019-04-25T03:54:53.432Z,1.77
2019-04-25T03:57:23.300Z,1.77
2019-04-25T03:59:53.634Z,1.70
2019-04-25T04:02:23.500Z,2.00
2019-04-25T04:04:53.599Z,2.15
2019-04-25T04:07:23.772Z,1.87
2019-04-25T04:09:53.258Z,2.00
2019-04-25T04:12:24.314Z,1.50
2019-04-25T04:14:53.734Z,2.17
2019-04-25T04:17:33.887Z,1.87
2019-04-25T04:20:05.635Z,1.60
2019-04-25T04:22:47.927Z,1.70
2019-04-25T04:25:20.883Z,1.80
2019-04-25T04:27:49.399Z,1.80
2019-04-25T04:30:18.357Z,2.00
2019-04-25T04:32:46.834Z,1.80
2019-04-25T04:35:16.176Z,1.87
2019-04-25T04:37:45.608Z,1.47
2019-04-25T04:40:17.242Z,1.50
2019-04-25T04:42:45.805Z,1.80
2019-04-25T04:45:15.752Z,1.80
2019-04-25T04:47:44.757Z,1.77
2019-04-25T04:50:14.483Z,1.97
2019-04-25T04:52:43.988Z,1.90
2019-04-25T04:55:14.833Z,1.70
2019-04-25T04:57:43.458Z,1.60
2019-04-25T05:00:14.556Z,1.90
2019-04-25T05:02:45.388Z,2.27
2019-04-25T05:05:15.963Z,1.70
2019-04-25T05:07:46.203Z,1.70
2019-04-25T05:10:17.197Z,1.70
2019-04-25T05:12:44.883Z,1.90
2019-04-25T05:15:16.247Z,2.17
2019-04-25T05:17:44.584Z,1.97
2019-04-25T05:20:16.012Z,1.77
2019-04-25T05:22:44.528Z,1.97
2019-04-25T05:25:16.241Z,1.73
2019-04-25T05:27:57.716Z,1.63
2019-04-25T05:30:16.978Z,2.10
2019-04-25T05:32:46.554Z,1.90
2019-04-25T05:35:16.269Z,1.83
2019-04-25T05:37:45.057Z,1.97
2019-04-25T05:40:15.116Z,1.50
2019-04-25T05:42:48.020Z,1.80
2019-04-25T05:45:19.089Z,1.47
2019-04-25T05:47:48.588Z,2.00
2019-04-25T05:50:17.869Z,1.40
2019-04-25T05:52:46.672Z,1.73
2019-04-25T05:55:17.269Z,1.43
2019-04-25T05:57:49.902Z,1.50
2019-04-25T06:00:16.671Z,1.30
2019-04-25T06:02:46.337Z,1.43
2019-04-25T06:05:15.006Z,1.37
2019-04-25T06:07:43.568Z,1.27
2019-04-25T06:10:14.450Z,1.63
2019-04-25T06:13:01.181Z,1.30
2019-04-25T06:15:31.286Z,1.60
2019-04-25T06:18:01.453Z,1.80
2019-04-25T06:20:31.820Z,1.50
2019-04-25T06:23:03.263Z,1.60
2019-04-25T06:25:37.243Z,1.57
2019-04-25T06:28:19.450Z,1.33
2019-04-25T06:30:49.026Z,1.60
2019-04-25T06:33:17.520Z,1.70
2019-04-25T06:35:46.101Z,1.57
2019-04-25T06:38:14.629Z,1.50
2019-04-25T06:40:43.758Z,1.40
2019-04-25T06:43:13.485Z,1.63
2019-04-25T06:45:55.208Z,2.00
2019-04-25T06:48:25.907Z,1.30
2019-04-25T06:50:54.700Z,1.63
2019-04-25T06:53:25.657Z,1.37
2019-04-25T06:55:53.633Z,1.50
2019-04-25T06:58:23.272Z,1.17
2019-04-25T07:01:00.061Z,1.53
2019-04-25T07:03:24.898Z,1.75
2019-04-25T07:05:53.636Z,1.23
2019-04-25T07:08:25.088Z,1.32
2019-04-25T07:10:53.935Z,1.23
2019-04-25T07:13:24.776Z,1.13
2019-04-25T07:15:53.441Z,1.10
2019-04-25T07:18:24.809Z,1.80
2019-04-25T07:20:53.412Z,1.20
2019-04-25T07:23:23.502Z,1.13
2019-04-25T07:25:54.116Z,1.40
2019-04-25T07:28:29.724Z,1.03
2019-04-25T07:31:08.257Z,1.37
2019-04-25T07:33:54.765Z,1.13
2019-04-25T07:36:23.344Z,1.27
2019-04-25T07:39:05.484Z,1.20
2019-04-25T07:41:22.062Z,1.30
2019-04-25T07:43:50.562Z,1.10
2019-04-25T07:46:19.228Z,1.20
2019-04-25T07:48:47.692Z,1.47
2019-04-25T07:51:16.619Z,1.50
2019-04-25T07:53:45.179Z,1.27
2019-04-25T07:56:14.312Z,1.33
2019-04-25T07:58:51.660Z,1.17
2019-04-25T08:01:15.558Z,1.20
2019-04-25T08:03:44.554Z,1.50
2019-04-25T08:06:13.757Z,1.23
2019-04-25T08:08:43.595Z,1.20
2019-04-25T08:11:13.995Z,1.00
2019-04-25T08:13:56.728Z,1.47
2019-04-25T08:16:30.054Z,1.10
2019-04-25T08:18:59.605Z,2.33
2019-04-25T08:21:28.242Z,1.30
2019-04-25T08:23:57.506Z,1.20
2019-04-25T08:26:25.971Z,1.30
2019-04-25T08:28:57.627Z,1.27
2019-04-25T08:31:24.667Z,1.10
2019-04-25T08:33:53.647Z,1.10
2019-04-25T08:36:23.389Z,1.20
2019-04-25T08:38:53.443Z,1.13
2019-04-25T08:41:23.818Z,1.00
2019-04-25T08:43:54.343Z,0.97
2019-04-25T08:46:23.494Z,1.10
2019-04-25T08:49:06.860Z,0.90
2019-04-25T08:51:37.870Z,1.13
2019-04-25T08:54:20.209Z,1.23
2019-04-25T08:56:48.732Z,1.10
2019-04-25T08:59:40.654Z,1.17
2019-04-25T09:02:25.327Z,1.00
2019-04-25T09:04:58.247Z,1.30
2019-04-25T09:07:26.793Z,0.67
2019-04-25T09:09:55.286Z,1.30
2019-04-25T09:12:24.108Z,1.05
2019-04-25T09:14:54.071Z,1.10
2019-04-25T09:17:24.326Z,0.80
2019-04-25T09:19:54.233Z,0.93
2019-04-25T09:22:24.264Z,0.80
2019-04-25T09:24:53.956Z,0.93
2019-04-25T09:27:23.539Z,0.90
2019-04-25T09:29:54.072Z,1.00
2019-04-25T09:32:23.818Z,1.10
2019-04-25T09:34:54.068Z,1.10
2019-04-25T09:37:24.519Z,1.00
2019-04-25T09:40:04.256Z,1.20
2019-04-25T09:42:33.832Z,0.90
2019-04-25T09:45:15.240Z,1.00
2019-04-25T09:47:45.782Z,0.88
2019-04-25T09:50:31.364Z,0.80
2019-04-25T09:52:59.829Z,0.93
2019-04-25T09:55:36.379Z,0.77
2019-04-25T09:58:09.024Z,1.37
2019-04-25T10:00:39.265Z,0.90
2019-04-25T10:03:07.949Z,1.30
2019-04-25T10:05:37.038Z,1.17
2019-04-25T10:08:05.936Z,0.93
2019-04-25T10:10:34.497Z,0.90
2019-04-25T10:13:04.879Z,1.37
2019-04-25T10:15:44.100Z,0.97
2019-04-25T10:18:14.229Z,1.27
2019-04-25T10:20:44.633Z,0.85
2019-04-25T10:23:15.563Z,0.85
2019-04-25T10:25:45.016Z,0.88
2019-04-25T10:28:13.892Z,1.00
2019-04-25T10:30:42.940Z,1.00
2019-04-25T10:33:14.199Z,0.70
2019-04-25T10:35:52.046Z,1.00
2019-04-25T10:38:14.577Z,1.10
2019-04-25T10:40:46.151Z,1.25
2019-04-25T10:43:15.842Z,1.10
2019-04-25T10:45:46.338Z,0.90
2019-04-25T10:48:15.938Z,1.07
2019-04-25T10:50:45.919Z,1.10
2019-04-25T10:53:14.716Z,1.20
2019-04-25T10:55:43.792Z,1.02
2019-04-25T10:58:14.084Z,0.90
2019-04-25T11:00:47.755Z,1.30
2019-04-25T11:03:35.306Z,0.82
2019-04-25T11:06:04.437Z,0.90
2019-04-25T11:08:34.004Z,0.98
2019-04-25T11:11:03.758Z,0.70
2019-04-25T11:13:33.954Z,0.85
2019-04-25T11:16:03.506Z,1.00
2019-04-25T11:18:34.018Z,1.00
2019-04-25T11:21:05.765Z,1.00
2019-04-25T11:23:33.172Z,0.80
2019-04-25T11:26:01.722Z,0.95
2019-04-25T11:28:30.268Z,1.35
2019-04-25T11:30:59.132Z,0.82
2019-04-25T11:33:28.573Z,0.88
2019-04-25T11:35:57.184Z,0.80
2019-04-25T11:38:30.948Z,0.80
2019-04-25T11:41:16.522Z,0.70
2019-04-25T11:43:46.308Z,0.90
2019-04-25T11:46:15.891Z,0.70
2019-04-25T11:48:45.473Z,0.75
2019-04-25T11:51:14.840Z,0.80
2019-04-25T11:53:45.071Z,0.70
2019-04-25T11:56:13.807Z,0.60
2019-04-25T11:58:45.069Z,0.80
2019-04-25T12:01:13.820Z,0.72
2019-04-25T12:03:45.095Z,0.70
2019-04-25T12:06:14.413Z,0.70
2019-04-25T12:08:43.839Z,0.72
2019-04-25T12:11:13.912Z,0.88
2019-04-25T12:13:45.498Z,0.70
2019-04-25T12:16:14.414Z,0.72
2019-04-25T12:18:44.774Z,0.80
2019-04-25T12:21:13.722Z,0.78
2019-04-25T12:23:45.026Z,0.82
2019-04-25T12:26:14.197Z,0.82
2019-04-25T12:28:42.995Z,0.98
2019-04-25T12:31:13.152Z,0.62
2019-04-25T12:33:43.389Z,0.80
2019-04-25T12:36:13.543Z,0.62
2019-04-25T12:38:43.852Z,0.80
2019-04-25T12:41:13.060Z,0.80
2019-04-25T12:43:43.899Z,0.60
2019-04-25T12:46:19.900Z,0.98
2019-04-25T12:48:49.507Z,1.10
2019-04-25T12:51:18.296Z,0.75
2019-04-25T12:53:46.836Z,0.80
2019-04-25T12:56:15.349Z,1.00
2019-04-25T12:58:44.008Z,0.70
2019-04-25T13:01:12.905Z,1.12
2019-04-25T13:03:41.420Z,0.80
2019-04-25T13:06:10.122Z,1.12
2019-04-25T13:08:38.672Z,0.65
2019-04-25T13:11:08.603Z,1.20
2019-04-25T13:13:37.532Z,0.90
2019-04-25T13:16:06.393Z,1.02
2019-04-25T13:18:35.996Z,0.60
2019-04-25T13:21:05.507Z,0.95
2019-04-25T13:23:34.308Z,0.68
2019-04-25T13:26:05.268Z,1.37
2019-04-25T13:28:34.822Z,0.80
2019-04-25T13:31:21.025Z,0.68
2019-04-25T13:33:57.346Z,0.70
2019-04-25T13:36:25.959Z,0.85
2019-04-25T13:38:54.489Z,0.65
2019-04-25T13:41:23.240Z,0.88
2019-04-25T13:43:53.070Z,0.80
2019-04-25T13:46:24.678Z,0.90
2019-04-25T13:48:52.260Z,0.70
2019-04-25T13:51:21.228Z,0.78
2019-04-25T13:53:49.761Z,0.80
2019-04-25T13:56:18.314Z,0.62
2019-04-25T13:58:46.905Z,0.57
2019-04-25T14:01:17.659Z,0.85
2019-04-25T14:03:47.421Z,0.85
2019-04-25T14:06:16.083Z,0.90
2019-04-25T14:08:44.733Z,0.80
2019-04-25T14:11:13.996Z,0.80
2019-04-25T14:13:42.878Z,0.70
2019-04-25T14:16:13.778Z,0.85
2019-04-25T14:18:44.036Z,1.00
2019-04-25T14:21:16.860Z,0.80
2019-04-25T14:23:45.402Z,1.00
2019-04-25T14:26:14.497Z,0.88
2019-04-25T14:28:44.290Z,0.80
2019-04-25T14:31:30.438Z,0.90
2019-04-25T14:33:45.060Z,1.40
2019-04-25T14:36:13.696Z,0.90
2019-04-25T14:38:42.245Z,0.93
2019-04-25T14:41:11.105Z,0.80
2019-04-25T14:43:39.562Z,0.90
2019-04-25T14:46:08.088Z,0.90
2019-04-25T14:48:36.570Z,0.87
2019-04-25T14:51:05.109Z,0.82
2019-04-25T14:53:34.819Z,0.82
2019-04-25T14:56:08.144Z,1.10
2019-04-25T14:58:38.266Z,0.70
2019-04-25T15:01:07.577Z,0.78
2019-04-25T15:03:36.185Z,0.73
2019-04-25T15:06:04.870Z,0.80
2019-04-25T15:08:33.361Z,0.78
2019-04-25T15:11:01.843Z,0.90
2019-04-25T15:13:30.473Z,0.90
2019-04-25T15:15:59.077Z,0.85
2019-04-25T15:18:27.620Z,0.95
2019-04-25T15:20:56.164Z,0.90
2019-04-25T15:23:25.442Z,0.90
2019-04-25T15:25:54.056Z,0.98
2019-04-25T15:28:24.371Z,1.10
2019-04-25T15:30:53.288Z,0.90
2019-04-25T15:33:24.138Z,0.90
2019-04-25T15:36:03.312Z,1.00
2019-04-25T15:38:33.588Z,0.90
2019-04-25T15:41:09.501Z,0.90
2019-04-25T15:43:55.844Z,0.80
2019-04-25T15:46:32.283Z,1.02
2019-04-25T15:49:00.865Z,1.10
2019-04-25T15:51:29.917Z,1.00
2019-04-25T15:53:58.495Z,0.90
2019-04-25T15:56:27.454Z,0.95
2019-04-25T15:58:56.909Z,0.80
2019-04-25T16:01:26.397Z,0.75
2019-04-25T16:03:54.936Z,1.10
2019-04-25T16:06:23.403Z,0.93
2019-04-25T16:08:51.903Z,0.90
2019-04-25T16:11:20.449Z,0.90
2019-04-25T16:13:49.533Z,0.98
2019-04-25T16:16:18.179Z,0.90
2019-04-25T16:18:46.773Z,0.95
2019-04-25T16:21:15.608Z,1.00
2019-04-25T16:23:44.182Z,1.27
2019-04-25T16:26:13.126Z,0.93
2019-04-25T16:28:41.580Z,1.15
2019-04-25T16:31:11.677Z,1.17
2019-04-25T16:33:40.167Z,1.33
2019-04-25T16:36:09.280Z,1.10
2019-04-25T16:38:38.938Z,0.90
2019-04-25T16:41:08.044Z,0.90
2019-04-25T16:43:39.694Z,1.50
2019-04-25T16:46:08.246Z,0.85
2019-04-25T16:48:36.709Z,1.10
2019-04-25T16:51:05.233Z,1.00
2019-04-25T16:53:33.704Z,1.22
2019-04-25T16:56:02.242Z,1.40
2019-04-25T16:58:30.948Z,1.57
2019-04-25T17:01:01.129Z,0.93
2019-04-25T17:03:31.422Z,1.05
2019-04-25T17:06:00.186Z,1.10
2019-04-25T17:08:28.709Z,1.02
2019-04-25T17:10:57.249Z,1.30
2019-04-25T17:13:26.976Z,1.62
2019-04-25T17:15:57.188Z,1.50
2019-04-25T17:18:39.324Z,1.30
2019-04-25T17:21:11.777Z,1.32
2019-04-25T17:23:40.508Z,1.42
2019-04-25T17:26:09.784Z,1.30
2019-04-25T17:28:41.128Z,1.00
2019-04-25T17:31:14.392Z,1.37
2019-04-25T17:33:47.553Z,1.10
2019-04-25T17:36:20.481Z,1.10
2019-04-25T17:38:50.776Z,1.20
2019-04-25T17:41:19.315Z,1.20
2019-04-25T17:43:47.785Z,1.20
2019-04-25T17:46:17.994Z,1.20
2019-04-25T17:48:46.600Z,1.32
2019-04-25T17:51:15.059Z,0.72
2019-04-25T17:53:43.716Z,1.30
2019-04-25T17:56:12.333Z,1.30
2019-04-25T17:58:41.249Z,1.30
2019-04-25T18:01:12.321Z,1.30
2019-04-25T18:03:41.842Z,1.10
2019-04-25T18:06:10.600Z,1.02
2019-04-25T18:08:39.574Z,0.90
2019-04-25T18:11:08.467Z,1.30
2019-04-25T18:13:56.357Z,1.00
2019-04-25T18:16:26.789Z,0.80
2019-04-25T18:19:06.204Z,0.70
2019-04-25T18:21:35.865Z,1.00
2019-04-25T18:24:24.066Z,0.60
2019-04-25T18:26:57.235Z,0.72
2019-04-25T18:29:26.808Z,0.80
2019-04-25T18:31:55.352Z,0.75
2019-04-25T18:34:28.116Z,0.70
2019-04-25T18:37:16.787Z,0.53
2019-04-25T18:39:55.877Z,0.90
2019-04-25T18:42:31.746Z,0.98
2019-04-25T18:45:00.232Z,0.93
2019-04-25T18:47:28.704Z,1.10
2019-04-25T18:50:18.249Z,0.90
2019-04-25T18:52:48.395Z,0.93
2019-04-25T18:55:18.580Z,1.00
2019-04-25T18:57:51.460Z,0.82
2019-04-25T19:00:21.715Z,1.10
2019-04-25T19:02:57.903Z,1.10
2019-04-25T19:05:40.965Z,1.20
2019-04-25T19:08:10.072Z,1.00
2019-04-25T19:10:39.566Z,0.90
2019-04-25T19:13:12.922Z,1.10
2019-04-25T19:15:39.817Z,1.10
2019-04-25T19:18:08.995Z,0.75
2019-04-25T19:20:37.782Z,1.00
2019-04-25T19:23:06.416Z,1.10
2019-04-25T19:25:34.995Z,0.93
2019-04-25T19:28:03.648Z,1.12
2019-04-25T19:30:32.225Z,1.10
2019-04-25T19:33:00.729Z,1.07
2019-04-25T19:35:29.235Z,1.20
2019-04-25T19:37:59.016Z,0.93
2019-04-25T19:40:48.126Z,1.10
2019-04-25T19:43:21.569Z,0.90
2019-04-25T19:45:51.151Z,0.80
2019-04-25T19:48:19.748Z,0.90
2019-04-25T19:50:48.333Z,1.07
2019-04-25T19:53:16.879Z,0.90
2019-04-25T19:55:45.579Z,0.60
2019-04-25T19:58:14.138Z,0.82
2019-04-25T20:00:44.194Z,0.90
2019-04-25T20:03:26.527Z,0.72
2019-04-25T20:06:08.755Z,0.75
2019-04-25T20:08:55.124Z,0.70
2019-04-25T20:11:34.545Z,1.00
2019-04-25T20:14:03.085Z,0.70
2019-04-25T20:16:34.759Z,0.90
2019-04-25T20:19:03.270Z,0.72
2019-04-25T20:21:31.750Z,0.70
2019-04-25T20:24:00.241Z,0.60
2019-04-25T20:26:28.788Z,0.62
2019-04-25T20:28:57.330Z,0.50
2019-04-25T20:31:25.889Z,0.60
2019-04-25T20:34:03.469Z,0.65
2019-04-25T20:36:24.620Z,0.80
2019-04-25T20:38:53.322Z,0.75
2019-04-25T20:41:21.940Z,0.80
2019-04-25T20:43:50.733Z,0.68
2019-04-25T20:46:19.342Z,0.60
2019-04-25T20:48:48.187Z,0.70
2019-04-25T20:51:17.064Z,0.70
2019-04-25T20:53:46.425Z,0.85
2019-04-25T20:56:15.700Z,0.85
2019-04-25T20:58:44.180Z,0.70
2019-04-25T21:01:12.639Z,0.80
2019-04-25T21:03:41.187Z,0.80
2019-04-25T21:06:23.073Z,0.80
2019-04-25T21:08:51.554Z,1.17
2019-04-25T21:11:20.022Z,1.20
2019-04-25T21:14:02.184Z,0.90
2019-04-25T21:16:51.853Z,0.80
2019-04-25T21:19:33.844Z,0.72
2019-04-25T21:22:02.332Z,0.70
2019-04-25T21:24:30.866Z,1.10
2019-04-25T21:26:59.368Z,0.82
2019-04-25T21:29:27.983Z,0.90
2019-04-25T21:31:56.717Z,0.90
2019-04-25T21:34:27.038Z,0.80
2019-04-25T21:36:55.561Z,0.70
2019-04-25T21:39:32.172Z,0.90
2019-04-25T21:42:05.320Z,0.80
2019-04-25T21:44:34.171Z,0.72
2019-04-25T21:47:03.235Z,0.90
2019-04-25T21:49:32.172Z,0.70
2019-04-25T21:52:01.193Z,0.90
2019-04-25T21:54:30.136Z,0.98
2019-04-25T21:56:59.520Z,0.65
2019-04-25T21:59:28.384Z,1.00
2019-04-25T22:01:58.108Z,0.80
2019-04-25T22:04:38.256Z,1.00
2019-04-25T22:06:57.047Z,0.80
2019-04-25T22:09:26.191Z,1.00
2019-04-25T22:11:56.333Z,0.90
2019-04-25T22:14:25.519Z,0.90
2019-04-25T22:16:55.457Z,1.05
2019-04-25T22:19:24.377Z,1.10
2019-04-25T22:21:53.318Z,1.10
2019-04-25T22:24:22.049Z,0.95
2019-04-25T22:26:52.540Z,1.10
2019-04-25T22:29:22.328Z,1.00
2019-04-25T22:32:08.716Z,1.00
2019-04-25T22:34:51.659Z,1.22
2019-04-25T22:37:09.620Z,1.00
2019-04-25T22:39:38.769Z,0.80
2019-04-25T22:42:08.853Z,1.22
2019-04-25T22:44:37.600Z,1.00
2019-04-25T22:47:06.954Z,0.93
2019-04-25T22:49:35.417Z,1.10
2019-04-25T22:52:04.970Z,1.32
2019-04-25T22:54:33.733Z,1.15
2019-04-25T22:57:02.608Z,1.07
2019-04-25T22:59:31.601Z,1.00
2019-04-25T23:02:02.434Z,1.05
2019-04-25T23:04:33.645Z,1.12
2019-04-25T23:07:02.581Z,1.27
2019-04-25T23:09:32.972Z,1.10
2019-04-25T23:12:02.081Z,0.80
2019-04-25T23:14:30.918Z,1.12
2019-04-25T23:16:59.378Z,0.90
2019-04-25T23:19:27.866Z,1.00
2019-04-25T23:21:56.798Z,1.03
2019-04-25T23:24:26.966Z,1.07
2019-04-25T23:27:02.097Z,1.20
2019-04-25T23:29:30.640Z,1.10
2019-04-25T23:31:59.110Z,1.13
2019-04-25T23:34:28.029Z,1.00
2019-04-25T23:36:56.680Z,1.10
2019-04-25T23:39:25.641Z,1.10
2019-04-25T23:41:54.092Z,0.95
2019-04-25T23:44:22.612Z,1.05
2019-04-25T23:46:51.341Z,1.20
2019-04-25T23:49:19.817Z,1.30
2019-04-25T23:51:48.773Z,1.02
2019-04-25T23:54:17.264Z,1.10
2019-04-25T23:56:45.771Z,1.35
2019-04-25T23:59:15.709Z,1.30
